^^

Metar de toute la France(point de départ, Chateauroux, classé dans l'ordre alphabétique actualisée toutes les 30 minutes)






LFBA - Agen/, France
Distance de la station: SSO 307km
Mise à jour: 22/11/2014 17:00
partiellement nuageux
partiellement nuageux
 Wind from ESE
Vent: ESE 13 km/h
Température: 19°C
Point de Rosée: 15°C
Humidité: 78%
Baromètre: 1014 hPa
Nuages: partiellement nuageux
Visibilité: 10 km
2014/11/22 16:00 LFBA 221600Z AUTO 11007KT 9999 NSC 19/15 Q1014
LFLP - Annecy/, France
Distance de la station: ESE 352km
Mise à jour: 22/11/2014 17:00
partiellement nuageux
partiellement nuageux
 Wind from ONO
Vent: ONO 7 km/h
Température: 8°C
Wind Chill: 7°C
Point de Rosée: 6°C
Humidité: 87%
Baromètre: 1020 hPa
Nuages: partiellement nuageux
Visibilité: 10 km
2014/11/22 16:00 LFLP 221600Z AUTO 30004KT 270V330 9999 NSC 08/06 Q1020
 
LFOA - Avord/ , France
Distance de la station: ENE 76km
Mise à jour: 22/11/2014 17:00
partiellement nuageux
partiellement nuageux
 Wind from E
Vent: E 9 km/h
Température: 14°C
Point de Rosée: 11°C
Humidité: 82%
Baromètre: 1016 hPa
Nuages: partiellement nuageux
Visibilité: 10 km
2014/11/22 16:00 LFOA 221600Z AUTO 10005KT 9999 NSC 14/11 Q1016
LFSB - Bale/, France
Distance de la station: ENE 449km
Mise à jour: 22/11/2014 17:00
clair
clair
 Wind from NE
Vent: NE 6 km/h
Température: 10°C
Point de Rosée: 6°C
Humidité: 76%
Baromètre: 1020 hPa
Récapitulatifs: clair
Visibilité: supérieure à 10 km
2014/11/22 16:00 LFSB 221600Z 05003KT 350V070 CAVOK 10/06 Q1020 NOSIG
 
LFOB - Beauvais/, France
Distance de la station: N 296km
Mise à jour: 22/11/2014 17:00
partiellement nuageux
partiellement nuageux
 Wind from SSE
Vent: SSE 9 km/h
Température: 12°C
Point de Rosée: 10°C
Humidité: 88%
Baromètre: 1015 hPa
Nuages: partiellement nuageux
Visibilité: 10 km
2014/11/22 16:00 LFOB 221600Z AUTO 15005KT 9999 NSC 12/10 Q1015
LFBE - Bergerac/, France
Distance de la station: SSO 240km
Mise à jour: 22/11/2014 17:00
partiellement nuageux
partiellement nuageux
 Wind from E
Vent: E 6 km/h
Température: 18°C
Point de Rosée: 15°C
Humidité: 83%
Baromètre: 1014 hPa
Nuages: partiellement nuageux
Visibilité: 10 km
2014/11/22 16:00 LFBE 221600Z AUTO 10003KT 080V140 9999 NSC 18/15 Q1014
 
LFMU - Beziers/, France
Distance de la station: SSE 411km
Mise à jour: 22/11/2014 17:00
partiellement nuageux
partiellement nuageux
 Wind from ESE
Vent: ESE 20 km/h
Température: 18°C
Point de Rosée: 14°C
Humidité: 78%
Baromètre: 1018 hPa
Nuages: partiellement nuageux
Visibilité: 10 km
2014/11/22 16:00 LFMU 221600Z AUTO 11011KT 9999 NSC 18/14 Q1018
LFBZ - Biarritz/, France
Distance de la station: SO 449km
Mise à jour: 22/11/2014 17:00
clair
clair
 Wind from SE
Vent: SE 9 km/h
Température: 19°C
Point de Rosée: 11°C
Humidité: 60%
Baromètre: 1012 hPa
Récapitulatifs: clair
Visibilité: supérieure à 10 km
2014/11/22 16:00 LFBZ 221600Z 14005KT 100V160 CAVOK 19/11 Q1012 NOSIG
 
LFBD - Bordeaux/, France
Distance de la station: SO 289km
Mise à jour: 22/11/2014 17:00
partiellement nuageux
partiellement nuageux
 Wind from E
Vent: E 11 km/h
Température: 18°C
Point de Rosée: 14°C
Humidité: 78%
Baromètre: 1013 hPa
Nuages: partiellement nuageux
Visibilité: 10 km
2014/11/22 16:00 LFBD 221600Z AUTO 10006KT 9999 NSC 18/14 Q1013
LFAQ - Bray/, France
Distance de la station: N 358km
Mise à jour: 22/11/2014 17:00
partiellement nuageux
partiellement nuageux
 Wind from SE
Vent: SE 15 km/h
Température: 11°C
Point de Rosée: 10°C
Humidité: 94%
Baromètre: 1015 hPa
Nuages: partiellement nuageux
Visibilité: 6 km
2014/11/22 16:00 LFAQ 221600Z AUTO 14008KT 6000 NSC 11/10 Q1015
 
LFRB - Brest/, France
Distance de la station: ONO 492km
Mise à jour: 22/11/2014 17:00
nuageux
nuageux
 Wind from N
Vent: N 6 km/h
Température: 13°C
Point de Rosée: 11°C
Humidité: 88%
Baromètre: 1013 hPa
Nuages: nuageux
Visibilité: 10 km
Nuages details: partiellement nuageux 488 m
partiellement nuageux 823 m
nuageux 3048 m
2014/11/22 16:00 LFRB 221600Z 36003KT 9999 SCT016 SCT027 BKN100 13/11 Q1013 RESHRA NOSIG
LFRK - Caen/, France
Distance de la station: NNO 306km
Mise à jour: 22/11/2014 17:00
partiellement nuageux
partiellement nuageux
 Wind from S
Vent: S 9 km/h
Température: 13°C
Point de Rosée: 11°C
Humidité: 88%
Baromètre: 1014 hPa
Nuages: partiellement nuageux
Visibilité: 8 km
2014/11/22 16:00 LFRK 221600Z AUTO 17005KT 8000 NSC 13/11 Q1014
 
LFMK - Carcassonne/, France
Distance de la station: S 403km
Mise à jour: 22/11/2014 17:00
Couvert
Couvert
 Wind from E
Vent: E 28 km/h
Température: 17°C
Point de Rosée: 14°C
Humidité: 83%
Baromètre: 1017 hPa
Nuages: Couvert
Visibilité: 10 km
Nuages details: Couvert 366 m
2014/11/22 16:00 LFMK 221600Z AUTO 09015KT 9999 OVC012 17/14 Q1017
LFMV - Caumont/, France
Distance de la station: SE 410km
Mise à jour: 22/11/2014 17:00
Couvert
Couvert
 Wind from S
Vent: S 13 km/h
Température: 17°C
Point de Rosée: 13°C
Humidité: 77%
Baromètre: 1020 hPa
Nuages: Couvert
Visibilité: 10 km
Nuages details: Couvert 1494 m
2014/11/22 16:00 LFMV 221600Z AUTO 17007KT 9999 OVC049 17/13 Q1020
 
LFBC - Cazaux/, France
Distance de la station: SO 336km
Mise à jour: 22/11/2014 17:00
partiellement nuageux
partiellement nuageux
 Wind from E
Vent: E 9 km/h
Température: 19°C
Point de Rosée: 13°C
Humidité: 68%
Baromètre: 1012 hPa
Nuages: partiellement nuageux
Visibilité: 10 km
2014/11/22 16:00 LFBC 221600Z AUTO 09005KT 9999 NSC 19/13 Q1012
LFPC - Creil/, France
Distance de la station: NNE 278km
Mise à jour: 22/11/2014 17:00

 Wind from variable
Vent: variable 4 km/h
Température: 13°C
Point de Rosée: 10°C
Humidité: 82%
Baromètre: 1016 hPa
Visibilité: 10 km
2014/11/22 16:00 LFPC 221600Z AUTO VRB02KT 9999 ////// 13/10 Q1016
 
LFLB - Chambery/, France
Distance de la station: ESE 348km
Mise à jour: 22/11/2014 17:00
clair
clair
 Wind from O
Vent: O 2 km/h
Température: 10°C
Point de Rosée: 7°C
Humidité: 82%
Baromètre: 1020 hPa
Récapitulatifs: clair
Visibilité: supérieure à 10 km
2014/11/22 16:00 LFLB 221600Z 26001KT CAVOK 10/07 Q1020 NOSIG
LFOK - Chalons/, France
Distance de la station: NE 287km
Mise à jour: 22/11/2014 17:00

 Wind from SSE
Vent: SSE 13 km/h
Visibilité: 10 km
2014/11/22 16:00 LFOK 221600Z AUTO 15007KT 9999 3300 NSC 12/10 Q1017
 
LFOC - Chateaudun/, France
Distance de la station: N 137km
Mise à jour: 22/11/2014 17:00
partiellement nuageux
partiellement nuageux
 Wind from E
Vent: E 4 km/h
Température: 14°C
Point de Rosée: 12°C
Humidité: 88%
Baromètre: 1015 hPa
Nuages: partiellement nuageux
Visibilité: 10 km
2014/11/22 16:00 LFOC 221600Z AUTO 10002KT 9999 NSC 14/12 Q1015
LFLX - Chateauroux/, France
Distance de la station: NE 4km
Mise à jour: 22/11/2014 17:00
clair
clair
 Wind from E
Vent: E 7 km/h
Température: 14°C
Point de Rosée: 12°C
Humidité: 88%
Baromètre: 1015 hPa
Récapitulatifs: clair
Visibilité: supérieure à 10 km
2014/11/22 16:00 LFLX 221600Z 10004KT CAVOK 14/12 Q1015 NOSIG
 
LFPG - Charles De Gaulle/, France
Distance de la station: NNE 252km
Mise à jour: 22/11/2014 17:00
clair
clair
 Wind from SE
Vent: SE 13 km/h
Température: 14°C
Point de Rosée: 11°C
Humidité: 82%
Baromètre: 1016 hPa
Récapitulatifs: clair
Visibilité: supérieure à 10 km
2014/11/22 16:00 LFPG 221600Z 13007KT CAVOK 14/11 Q1016 NOSIG
LFRC - Cherbourg/, France
Distance de la station: NO 390km
Mise à jour: 22/11/2014 17:00
Broulliard, Couvert
Broulliard, Couvert
 Wind from S
Vent: S 11 km/h
Température: 13°C
Point de Rosée: 12°C
Humidité: 94%
Baromètre: 1014 hPa
Récapitulatifs: Broulliard
Nuages: Couvert
Visibilité: 4 km
Nuages details: Couvert 91 m
2014/11/22 16:00 LFRC 221600Z AUTO 17006KT 3600 BR OVC003 13/12 Q1014
 
LFLC - Clermont/, France
Distance de la station: SE 163km
Mise à jour: 22/11/2014 17:00
clair
clair
 Wind from SE
Vent: SE 6 km/h
Température: 16°C
Point de Rosée: 11°C
Humidité: 72%
Baromètre: 1016 hPa
Récapitulatifs: clair
Visibilité: supérieure à 10 km
2014/11/22 16:00 LFLC 221600Z 14003KT 100V180 CAVOK 16/11 Q1016 NOSIG
LFBG - Cognac/, France
Distance de la station: SO 200km
Mise à jour: 22/11/2014 17:00
partiellement nuageux
partiellement nuageux
 Wind from SE
Vent: SE 13 km/h
Température: 18°C
Point de Rosée: 14°C
Humidité: 78%
Baromètre: 1014 hPa
Nuages: partiellement nuageux
Visibilité: 10 km
2014/11/22 16:00 LFBG 221600Z AUTO 14007KT 9999 NSC 18/14 Q1014
 
LFBY - Dax/, France
Distance de la station: SSO 411km
Mise à jour: 22/11/2014 17:00

 Wind from E
Vent: E 4 km/h
Température: 19°C
Point de Rosée: 12°C
Humidité: 64%
Baromètre: 1012 hPa
Visibilité: 10 km
2014/11/22 16:00 LFBY 221600Z AUTO 09002KT 9999 // ////// 19/12 Q1012
LFSD - Dijon/, France
Distance de la station: ENE 261km
Mise à jour: 22/11/2014 17:00
partiellement nuageux
partiellement nuageux
 Wind from variable
Vent: variable 2 km/h
Température: 11°C
Point de Rosée: 10°C
Humidité: 94%
Baromètre: 1018 hPa
Nuages: partiellement nuageux
Visibilité: 10 km
2014/11/22 16:00 LFSD 221600Z AUTO VRB01KT 9999 NSC 11/10 Q1018
 
LFRD - Dinard/, France
Distance de la station: NO 342km
Mise à jour: 22/11/2014 17:00
Broulliard, Couvert
Broulliard, Couvert
 Wind from calm
Vent: Vent calme
Température: 14°C
Point de Rosée: 13°C
Humidité: 94%
Baromètre: 1013 hPa
Récapitulatifs: Broulliard
Nuages: Couvert
Visibilité: 3 km
Nuages details: nuageux 183 m
Couvert 945 m
2014/11/22 16:00 LFRD 221600Z AUTO 00000KT 3400 BR BKN006 OVC031 14/13 Q1013
LFGJ - Dole/, France
Distance de la station: E 286km
Mise à jour: 22/11/2014 17:00
partiellement nuageux
partiellement nuageux
 Wind from S
Vent: S 7 km/h
Température: 13°C
Point de Rosée: 10°C
Humidité: 82%
Baromètre: 1018 hPa
Nuages: partiellement nuageux
Visibilité: 10 km
2014/11/22 16:00 LFGJ 221600Z AUTO 19004KT 9999 NSC 13/10 Q1018
 
LFOE - Evreux/, France
Distance de la station: N 247km
Mise à jour: 22/11/2014 17:00
Couvert
Couvert
 Wind from SSE
Vent: SSE 6 km/h
Température: 13°C
Point de Rosée: 11°C
Humidité: 88%
Baromètre: 1015 hPa
Nuages: Couvert
Visibilité: 10 km
Nuages details: Couvert 488 m
2014/11/22 16:00 LFOE 221600Z AUTO 16003KT 9999 OVC016 13/11 Q1015
LFMT - Frejorgues/, France
Distance de la station: SSE 403km
Mise à jour: 22/11/2014 17:00
clair
clair
 Wind from ESE
Vent: ESE 26 km/h
Température: 16°C
Point de Rosée: 14°C
Humidité: 88%
Baromètre: 1019 hPa
Récapitulatifs: clair
Visibilité: supérieure à 10 km
2014/11/22 16:00 LFMT 221600Z 11014KT CAVOK 16/14 Q1019 NOSIG
 
LFMI - Istres/, France
Distance de la station: SE 446km
Mise à jour: 22/11/2014 17:00
partiellement nuageux
partiellement nuageux
 Wind from SSE
Vent: SSE 9 km/h
Température: 16°C
Point de Rosée: 13°C
Humidité: 83%
Baromètre: 1020 hPa
Nuages: partiellement nuageux
Visibilité: 10 km
2014/11/22 16:00 LFMI 221600Z AUTO 16005KT 9999 NSC 16/13 Q1020
LFLS - Grenoble/, France
Distance de la station: ESE 323km
Mise à jour: 22/11/2014 17:00
partiellement nuageux
partiellement nuageux
 Wind from variable
Vent: variable 6 km/h
Température: 13°C
Point de Rosée: 9°C
Humidité: 77%
Baromètre: 1020 hPa
Nuages: partiellement nuageux
Visibilité: 10 km
2014/11/22 16:00 LFLS 221600Z AUTO VRB03KT 9999 NSC 13/09 Q1020
 
LFBH - La Rochelle/, France
Distance de la station: OSO 229km
Mise à jour: 22/11/2014 17:00
partiellement nuageux
partiellement nuageux
 Wind from SE
Vent: SE 17 km/h
Température: 16°C
Point de Rosée: 13°C
Humidité: 83%
Baromètre: 1013 hPa
Nuages: partiellement nuageux
Visibilité: 10 km
2014/11/22 16:00 LFBH 221600Z AUTO 13009KT 9999 NSC 16/13 Q1013
LFRI - La Roche Sur Yon/, France
Distance de la station: O 233km
Mise à jour: 22/11/2014 17:00
partiellement nuageux
partiellement nuageux
 Wind from variable
Vent: variable 4 km/h
Température: 14°C
Point de Rosée: 13°C
Humidité: 94%
Baromètre: 1013 hPa
Nuages: partiellement nuageux
Visibilité: 10 km
Nuages details: Quelques Nuages 274 m
partiellement nuageux 2987 m
2014/11/22 16:00 LFRI 221600Z AUTO VRB02KT 9999 FEW009 SCT098 14/13 Q1013
 
LFOH - Le Havre/, France
Distance de la station: NNO 323km
Mise à jour: 22/11/2014 17:00
partiellement nuageux
partiellement nuageux
 Wind from S
Vent: S 7 km/h
Température: 14°C
Point de Rosée: 11°C
Humidité: 82%
Baromètre: 1014 hPa
Nuages: partiellement nuageux
Visibilité: 10 km
2014/11/22 16:00 LFOH 221600Z AUTO 17004KT 9999 NSC 14/11 Q1014
LFRM - Le Mans/, France
Distance de la station: NO 166km
Mise à jour: 22/11/2014 17:00
partiellement nuageux
partiellement nuageux
 Wind from E
Vent: E 6 km/h
Température: 15°C
Point de Rosée: 12°C
Humidité: 82%
Baromètre: 1014 hPa
Nuages: partiellement nuageux
Visibilité: 10 km
2014/11/22 16:00 LFRM 221600Z AUTO 09003KT 9999 NSC 15/12 Q1014
 
LFRJ - Landivisiau/, France
Distance de la station: ONO 476km
Mise à jour: 22/11/2014 17:00
faible pluie, Couvert
faible pluie, Couvert
 Wind from variable
Vent: variable 4 km/h
Température: 13°C
Point de Rosée: 12°C
Humidité: 94%
Baromètre: 1013 hPa
Récapitulatifs: faible pluie
Nuages: Couvert
Visibilité: 9 km
Nuages details: Quelques Nuages 1189 m
nuageux 1463 m
Couvert 1829 m
2014/11/22 16:00 LFRJ 221600Z AUTO VRB02KT 9000 -RA FEW039 BKN048 OVC060 13/12 Q1013
LFRO - Lannion/, France
Distance de la station: ONO 441km
Mise à jour: 22/11/2014 17:00

 Wind from variable
Vent: variable 6 km/h
Température: 13°C
Point de Rosée: 11°C
Humidité: 88%
Baromètre: 1013 hPa
Visibilité: 10 km
2014/11/22 16:00 LFRO 221600Z AUTO VRB03KT 9999 ////// 13/11 Q1013
 
LFRL - Lanveoc/, France
Distance de la station: ONO 485km
Mise à jour: 22/11/2014 17:00
faible pluie, nuageux
faible pluie, nuageux
 Wind from calm
Vent: Vent calme
Température: 14°C
Point de Rosée: 12°C
Humidité: 88%
Baromètre: 1013 hPa
Récapitulatifs: faible pluie
Nuages: nuageux
Visibilité: 10 km
Nuages details: nuageux 366 m
nuageux 518 m
nuageux 1494 m
2014/11/22 16:00 LFRL 221600Z AUTO 00000KT 9999 -RA BKN012 BKN017 BKN049 14/12 Q1013
LFBL - Limoges/, France
Distance de la station: SSO 113km
Mise à jour: 22/11/2014 17:00
partiellement nuageux
partiellement nuageux
 Wind from SE
Vent: SE 13 km/h
Température: 17°C
Point de Rosée: 12°C
Humidité: 73%
Baromètre: 1015 hPa
Nuages: partiellement nuageux
Visibilité: 10 km
2014/11/22 16:00 LFBL 221600Z AUTO 14007KT 9999 NSC 17/12 Q1015
 
LFQQ - Lille/, France
Distance de la station: NNE 430km
Mise à jour: 22/11/2014 17:00
partiellement nuageux
partiellement nuageux
 Wind from SSE
Vent: SSE 13 km/h
Température: 11°C
Point de Rosée: 10°C
Humidité: 94%
Baromètre: 1015 hPa
Nuages: partiellement nuageux
Visibilité: 7 km
2014/11/22 16:00 LFQQ 221600Z 15007KT 7000 NSC 11/10 Q1015 NOSIG
LFRH - Lorient/, France
Distance de la station: ONO 401km
Mise à jour: 22/11/2014 17:00
Couvert
Couvert
 Wind from calm
Vent: Vent calme
Température: 15°C
Point de Rosée: 14°C
Humidité: 94%
Baromètre: 1013 hPa
Nuages: Couvert
Visibilité: 10 km
Nuages details: Quelques Nuages 183 m
nuageux 701 m
Couvert 1341 m
2014/11/22 16:00 LFRH 221600Z AUTO 00000KT 9999 FEW006 BKN023 OVC044 15/14 Q1013
 
LFLY - Lyon/, France
Distance de la station: ESE 279km
Mise à jour: 22/11/2014 17:00
partiellement nuageux
partiellement nuageux
 Wind from S
Vent: S 26 km/h
Température: 16°C
Point de Rosée: 10°C
Humidité: 68%
Baromètre: 1018 hPa
Nuages: partiellement nuageux
Visibilité: 10 km
2014/11/22 16:00 LFLY 221600Z AUTO 18014KT 9999 NSC 16/10 Q1018
LFLL - Lyon/Satolas, France
Distance de la station: ESE 287km
Mise à jour: 22/11/2014 17:00
clair
clair
 Wind from SSE
Vent: SSE 19 km/h
Température: 16°C
Point de Rosée: 10°C
Humidité: 68%
Baromètre: 1019 hPa
Récapitulatifs: clair
Visibilité: supérieure à 10 km
2014/11/22 16:00 LFLL 221600Z 16010KT CAVOK 16/10 Q1019 NOSIG
 
LFSX - Luxeuil/, France
Distance de la station: ENE 366km
Mise à jour: 22/11/2014 17:00
partiellement nuageux
partiellement nuageux
 Wind from ESE
Vent: ESE 6 km/h
Température: 13°C
Point de Rosée: 9°C
Humidité: 77%
Baromètre: 1019 hPa
Nuages: partiellement nuageux
Visibilité: 10 km
2014/11/22 16:00 LFSX 221600Z AUTO 11003KT 9999 NSC 13/09 Q1019
LFJR - Marce/, France
Distance de la station: NO 134km
Mise à jour: 22/11/2014 17:00
faible pluie, partiellement nuageux
faible pluie, partiellement nuageux
 Wind from SE
Vent: SE 7 km/h
Température: 14°C
Point de Rosée: 13°C
Humidité: 94%
Baromètre: 1014 hPa
Récapitulatifs: faible pluie
Nuages: partiellement nuageux
Visibilité: 10 km
2014/11/22 16:00 LFJR 221600Z AUTO 14004KT 9999 -RA NSC 14/13 Q1014
 
LFML - Marseille/, France
Distance de la station: SE 466km
Mise à jour: 22/11/2014 17:00
partiellement nuageux
partiellement nuageux
 Wind from SE
Vent: SE 9 km/h
Température: 17°C
Point de Rosée: 12°C
Humidité: 73%
Baromètre: 1020 hPa
Nuages: partiellement nuageux
Visibilité: 10 km
Nuages details: Quelques Nuages 1006 m
partiellement nuageux 4877 m
2014/11/22 16:00 LFML 221600Z 13005KT 9999 FEW033 SCT160 17/12 Q1020 NOSIG
LFPM - Melun/, France
Distance de la station: NNE 213km
Mise à jour: 22/11/2014 17:00
partiellement nuageux
partiellement nuageux
 Wind from ESE
Vent: ESE 7 km/h
Température: 13°C
Point de Rosée: 11°C
Humidité: 88%
Baromètre: 1016 hPa
Nuages: partiellement nuageux
Visibilité: 10 km
2014/11/22 16:00 LFPM 221600Z AUTO 11004KT 9999 NSC 13/11 Q1016
 
LFJL - Metz-Nancy-Lorra/, France
Distance de la station: NE 416km
Mise à jour: 22/11/2014 17:00
partiellement nuageux
partiellement nuageux
 Wind from ESE
Vent: ESE 17 km/h
Température: 10°C
Wind Chill: 8°C
Point de Rosée: 9°C
Humidité: 94%
Baromètre: 1018 hPa
Nuages: partiellement nuageux
Visibilité: 10 km
2014/11/22 16:00 LFJL 221600Z AUTO 11009KT 9999 NSC 10/09 Q1018
LFBM - Mont-De-Marsan/, France
Distance de la station: SSO 365km
Mise à jour: 22/11/2014 17:00
partiellement nuageux
partiellement nuageux
 Wind from ESE
Vent: ESE 7 km/h
Température: 19°C
Point de Rosée: 15°C
Humidité: 78%
Baromètre: 1013 hPa
Nuages: partiellement nuageux
Visibilité: 10 km
2014/11/22 16:00 LFBM 221600Z AUTO 11004KT 9999 NSC 19/15 Q1013
 
LFSO - Nancy/, France
Distance de la station: ENE 375km
Mise à jour: 22/11/2014 17:00
partiellement nuageux
partiellement nuageux
 Wind from SE
Vent: SE 9 km/h
Température: 12°C
Point de Rosée: 9°C
Humidité: 82%
Baromètre: 1018 hPa
Nuages: partiellement nuageux
Visibilité: 10 km
2014/11/22 16:00 LFSO 221600Z AUTO 14005KT 9999 NSC 12/09 Q1018
LFRS - Nantes/, France
Distance de la station: O 252km
Mise à jour: 22/11/2014 17:00
nuageux
nuageux
 Wind from ESE
Vent: ESE 11 km/h
Température: 15°C
Point de Rosée: 13°C
Humidité: 88%
Baromètre: 1013 hPa
Nuages: nuageux
Visibilité: 10 km
Nuages details: nuageux 244 m
2014/11/22 16:00 LFRS 221600Z 11006KT 9999 BKN008 15/13 Q1013 NOSIG
 
LFTW - Nimes/, France
Distance de la station: SE 402km
Mise à jour: 22/11/2014 17:00
Couvert
Couvert
 Wind from SSE
Vent: SSE 24 km/h
Température: 16°C
Point de Rosée: 13°C
Humidité: 83%
Baromètre: 1020 hPa
Nuages: Couvert
Visibilité: 10 km
Nuages details: nuageux 1311 m
Couvert 1646 m
2014/11/22 16:00 LFTW 221600Z AUTO 15013KT 9999 BKN043 OVC054 16/13 Q1020
LFMO - Orange/, France
Distance de la station: SE 387km
Mise à jour: 22/11/2014 17:00
partiellement nuageux
partiellement nuageux
 Wind from N
Vent: N 4 km/h
Température: 15°C
Point de Rosée: 12°C
Humidité: 82%
Baromètre: 1020 hPa
Nuages: partiellement nuageux
Visibilité: 10 km
Nuages details: partiellement nuageux 1890 m
2014/11/22 16:00 LFMO 221600Z AUTO 35002KT 9999 SCT062 15/12 Q1020
 
LFOJ - Orleans/, France
Distance de la station: N 128km
Mise à jour: 22/11/2014 17:00
partiellement nuageux
partiellement nuageux
 Wind from SE
Vent: SE 6 km/h
Température: 14°C
Point de Rosée: 11°C
Humidité: 82%
Baromètre: 1015 hPa
Nuages: partiellement nuageux
Visibilité: 10 km
2014/11/22 16:00 LFOJ 221600Z AUTO 13003KT 9999 NSC 14/11 Q1015
LFPB - Paris/, France
Distance de la station: NNE 246km
Mise à jour: 22/11/2014 17:00
partiellement nuageux
partiellement nuageux
 Wind from SSE
Vent: SSE 6 km/h
Température: 14°C
Point de Rosée: 10°C
Humidité: 77%
Baromètre: 1016 hPa
Nuages: partiellement nuageux
Visibilité: 10 km
2014/11/22 16:00 LFPB 221600Z AUTO 16003KT 9999 NSC 14/10 Q1016
 
LFPO - Paris/Orly/, France
Distance de la station: NNE 218km
Mise à jour: 22/11/2014 17:00
clair
clair
 Wind from SSE
Vent: SSE 4 km/h
Température: 13°C
Point de Rosée: 10°C
Humidité: 82%
Baromètre: 1016 hPa
Récapitulatifs: clair
Visibilité: supérieure à 10 km
2014/11/22 16:00 LFPO 221600Z 15002KT CAVOK 13/10 Q1016 NOSIG
LFMP - Perpignan/, France
Distance de la station: SSE 465km
Mise à jour: 22/11/2014 17:00
nuageux
nuageux
 Wind from E
Vent: E 24 km/h
Température: 18°C
Point de Rosée: 16°C
Humidité: 88%
Baromètre: 1017 hPa
Nuages: nuageux
Visibilité: 10 km
Nuages details: nuageux 244 m
2014/11/22 16:00 LFMP 221600Z 10013KT 9999 BKN008 18/16 Q1017
 
LFBI - Poitiers/, France
Distance de la station: OSO 108km
Mise à jour: 22/11/2014 17:00
partiellement nuageux
partiellement nuageux
 Wind from SSE
Vent: SSE 4 km/h
Température: 16°C
Point de Rosée: 13°C
Humidité: 83%
Baromètre: 1014 hPa
Nuages: partiellement nuageux
Visibilité: 10 km
2014/11/22 16:00 LFBI 221600Z AUTO 16002KT 9999 NSC 16/13 Q1014
LFRQ - Quimper/, France
Distance de la station: ONO 458km
Mise à jour: 22/11/2014 17:00
Couvert
Couvert
 Wind from NNO
Vent: NNO 9 km/h
Température: 13°C
Point de Rosée: 11°C
Humidité: 88%
Baromètre: 1013 hPa
Nuages: Couvert
Visibilité: 10 km
Nuages details: nuageux 1036 m
nuageux 1311 m
Couvert 2195 m
2014/11/22 16:00 LFRQ 221600Z AUTO 34005KT 9999 BKN034 BKN043 OVC072 13/11 Q1013
 
LFRN - Rennes/, France
Distance de la station: ONO 291km
Mise à jour: 22/11/2014 17:00
Couvert
Couvert
 Wind from E
Vent: E 6 km/h
Température: 15°C
Point de Rosée: 13°C
Humidité: 88%
Baromètre: 1013 hPa
Nuages: Couvert
Visibilité: 9 km
Nuages details: Couvert 244 m
2014/11/22 16:00 LFRN 221600Z AUTO 10003KT 9000 OVC008 15/13 Q1013
LFCR - Rodez/, France
Distance de la station: SSE 277km
Mise à jour: 22/11/2014 17:00
Couvert
Couvert
 Wind from SE
Vent: SE 22 km/h
Température: 14°C
Point de Rosée: 11°C
Humidité: 82%
Baromètre: 1018 hPa
Nuages: Couvert
Visibilité: 10 km
Nuages details: Couvert 427 m
2014/11/22 16:00 LFCR 221600Z AUTO 13012KT 9999 OVC014 14/11 Q1018
 
LFYR - Romorantin/, France
Distance de la station: N 56km
Mise à jour: 22/11/2014 17:00
partiellement nuageux
partiellement nuageux
 Wind from E
Vent: E 6 km/h
Température: 14°C
Point de Rosée: 11°C
Humidité: 82%
Baromètre: 1015 hPa
Nuages: partiellement nuageux
Visibilité: 10 km
2014/11/22 16:00 LFYR 221600Z AUTO 09003KT 9999 NSC 14/11 Q1015
LFOP - Rouen/, France
Distance de la station: N 286km
Mise à jour: 22/11/2014 17:00
nuageux
nuageux
 Wind from SSE
Vent: SSE 11 km/h
Température: 12°C
Point de Rosée: 10°C
Humidité: 88%
Baromètre: 1015 hPa
Nuages: nuageux
Visibilité: 10 km
Nuages details: partiellement nuageux 488 m
nuageux 4267 m
2014/11/22 16:00 LFOP 221600Z AUTO 16006KT 9999 SCT016 BKN140 12/10 Q1015
 
LFMY - Salon/, France
Distance de la station: SE 446km
Mise à jour: 22/11/2014 17:00
nuageux
nuageux
 Wind from E
Vent: E 9 km/h
Température: 16°C
Point de Rosée: 12°C
Humidité: 77%
Baromètre: 1020 hPa
Nuages: nuageux
Visibilité: 10 km
Nuages details: nuageux 1036 m
2014/11/22 16:00 LFMY 221600Z AUTO 10005KT 9999 BKN034 16/12 Q1020
LFST - Strasbourg/, France
Distance de la station: ENE 483km
Mise à jour: 22/11/2014 17:00

 Wind from calm
Vent: Vent calme
Visibilité: 1 km
2014/11/22 16:00 LFST 221600Z AUTO 00000KT 0700 0650 R23/2000D R05/1900D FG VV/// 07/07 Q1021
 
LFRT - Saint-Brieuc/, France
Distance de la station: ONO 388km
Mise à jour: 22/11/2014 17:00
Couvert
Couvert
 Wind from variable
Vent: variable 6 km/h
Température: 13°C
Point de Rosée: 12°C
Humidité: 94%
Baromètre: 1013 hPa
Nuages: Couvert
Visibilité: 9 km
Nuages details: Couvert 213 m
2014/11/22 16:00 LFRT 221600Z AUTO VRB03KT 9000 OVC007 13/12 Q1013
LFSI - St. Dizier/, France
Distance de la station: NE 313km
Mise à jour: 22/11/2014 17:00
partiellement nuageux
partiellement nuageux
 Wind from SE
Vent: SE 7 km/h
Température: 14°C
Point de Rosée: 9°C
Humidité: 72%
Baromètre: 1017 hPa
Nuages: partiellement nuageux
Visibilité: 10 km
2014/11/22 16:00 LFSI 221600Z AUTO 14004KT 9999 NSC 14/09 Q1017
 
LFMH - St Etienne/, France
Distance de la station: SE 247km
Mise à jour: 22/11/2014 17:00
clair
clair
 Wind from SSE
Vent: SSE 19 km/h
Température: 16°C
Point de Rosée: 10°C
Humidité: 68%
Baromètre: 1018 hPa
Récapitulatifs: clair
Visibilité: supérieure à 10 km
2014/11/22 16:00 LFMH 221600Z 15010KT CAVOK 16/10 Q1018 NOSIG
LFRG - St Gatien/, France
Distance de la station: NNO 305km
Mise à jour: 22/11/2014 17:00
partiellement nuageux
partiellement nuageux
 Wind from SSO
Vent: SSO 7 km/h
Température: 13°C
Point de Rosée: 11°C
Humidité: 88%
Baromètre: 1014 hPa
Nuages: partiellement nuageux
Visibilité: 10 km
2014/11/22 16:00 LFRG 221600Z AUTO 20004KT 9999 NSC 13/11 Q1014
 
LFRZ - St. Nazaire/, France
Distance de la station: ONO 297km
Mise à jour: 22/11/2014 17:00
Couvert
Couvert
 Wind from ENE
Vent: ENE 6 km/h
Température: 15°C
Point de Rosée: 13°C
Humidité: 88%
Baromètre: 1013 hPa
Nuages: Couvert
Visibilité: 6 km
Nuages details: Couvert 183 m
2014/11/22 16:00 LFRZ 221600Z AUTO 06003KT 020V100 6000 OVC006 15/13 Q1013
LFLN - Saint Yan/, France
Distance de la station: ESE 184km
Mise à jour: 22/11/2014 17:00
partiellement nuageux
partiellement nuageux
 Wind from calm
Vent: Vent calme
Température: 15°C
Point de Rosée: 12°C
Humidité: 82%
Baromètre: 1017 hPa
Nuages: partiellement nuageux
Visibilité: 10 km
2014/11/22 16:00 LFLN 221600Z AUTO 00000KT 9999 NSC 15/12 Q1017
 
LFBT - Tarbes/, France
Distance de la station: SSO 427km
Mise à jour: 22/11/2014 17:00
partiellement nuageux
partiellement nuageux
 Wind from variable
Vent: variable 4 km/h
Température: 16°C
Point de Rosée: 11°C
Humidité: 72%
Baromètre: 1013 hPa
Nuages: partiellement nuageux
Visibilité: 10 km
2014/11/22 16:00 LFBT 221600Z AUTO VRB02KT 9999 NSC 16/11 Q1013
LFSL - Toul/, France
Distance de la station: NE 356km
Mise à jour: 22/11/2014 17:00
partiellement nuageux
partiellement nuageux
 Wind from SE
Vent: SE 13 km/h
Température: 17°C
Point de Rosée: 12°C
Humidité: 73%
Baromètre: 1016 hPa
Nuages: partiellement nuageux
Visibilité: 10 km
2014/11/22 16:00 LFSL 221600Z AUTO 14007KT 120V180 9999 NSC 17/12 Q1016
 
LFBO - Toulouse/, France
Distance de la station: S 357km
Mise à jour: 22/11/2014 17:00
nuageux
nuageux
 Wind from ESE
Vent: ESE 26 km/h
Température: 17°C
Point de Rosée: 14°C
Humidité: 83%
Baromètre: 1015 hPa
Nuages: nuageux
Visibilité: 10 km
Nuages details: nuageux 518 m
2014/11/22 16:00 LFBO 221600Z AUTO 11014KT 9999 BKN017 17/14 Q1015
LFOT - Tours/, France
Distance de la station: NO 100km
Mise à jour: 22/11/2014 17:00
partiellement nuageux
partiellement nuageux
 Wind from ESE
Vent: ESE 6 km/h
Température: 15°C
Point de Rosée: 12°C
Humidité: 82%
Baromètre: 1014 hPa
Nuages: partiellement nuageux
Visibilité: 10 km
2014/11/22 16:00 LFOT 221600Z AUTO 12003KT 9999 NSC 15/12 Q1014
 
LFPN - Toussus Le Noble/, France
Distance de la station: N 217km
Mise à jour: 22/11/2014 17:00
nuageux
nuageux
 Wind from SE
Vent: SE 9 km/h
Température: 12°C
Point de Rosée: 11°C
Humidité: 94%
Baromètre: 1015 hPa
Nuages: nuageux
Visibilité: 10 km
Nuages details: Quelques Nuages 701 m
nuageux 3962 m
2014/11/22 16:00 LFPN 221600Z AUTO 13005KT 9999 FEW023 BKN130 12/11 Q1015
LFPV - Villacoublay/, France
Distance de la station: N 220km
Mise à jour: 22/11/2014 17:00
partiellement nuageux
partiellement nuageux
 Wind from SE
Vent: SE 6 km/h
Température: 13°C
Point de Rosée: 10°C
Humidité: 82%
Baromètre: 1016 hPa
Nuages: partiellement nuageux
Visibilité: 10 km
2014/11/22 16:00 LFPV 221600Z AUTO 14003KT 9999 NSC 13/10 Q1016